Time;durP1;ratioP1;P1;durP2;ratioP2;P2;SDS_P1;SDS_P2;PMS_P1;PMS_P2;Temp;Humidity;BMP_temperature;BMP_pressure;BME280_temperature;BME280_humidity;BME280_pressure;Samples;Min_cycle;Max_cycle;Signal;HPM_P1;HPM_P2
2021/12/26 00:00:19;;;;;;;1.60;1.47;;;-3.20;99.90;;;;;;5002907;28;20049;-79
2021/12/26 00:02:45;;;;;;;1.23;0.80;;;-3.20;99.90;;;;;;4987129;28;20065;-79
2021/12/26 00:05:11;;;;;;;0.50;0.37;;;-3.20;99.90;;;;;;5004520;28;20409;-79
2021/12/26 00:07:37;;;;;;;1.23;0.43;;;-3.20;99.90;;;;;;5000127;28;20096;-79
2021/12/26 00:10:08;;;;;;;1.20;1.03;;;-3.20;99.90;;;;;;4985445;28;20058;-79
2021/12/26 00:12:34;;;;;;;0.52;0.20;;;-3.30;99.90;;;;;;5004544;28;20069;-79
2021/12/26 00:15:00;;;;;;;0.60;0.60;;;-3.30;99.90;;;;;;5004142;28;20050;-79
2021/12/26 00:17:25;;;;;;;0.43;0.43;;;-3.20;99.90;;;;;;5004345;28;20507;-79
2021/12/26 00:19:51;;;;;;;0.43;0.43;;;-3.20;99.90;;;;;;4998602;28;20042;-79
2021/12/26 00:22:16;;;;;;;1.63;1.03;;;-3.10;99.90;;;;;;5002451;28;20054;-79
2021/12/26 00:24:42;;;;;;;0.37;0.37;;;-3.10;99.90;;;;;;5003088;28;20396;-79
2021/12/26 00:27:08;;;;;;;0.37;0.37;;;-3.00;99.90;;;;;;5003891;28;20045;-79
2021/12/26 00:29:34;;;;;;;1.07;0.53;;;-3.00;99.90;;;;;;5004010;28;20034;-79
2021/12/26 00:31:59;;;;;;;1.20;0.40;;;-3.00;99.90;;;;;;4996995;28;20382;-79
2021/12/26 00:34:25;;;;;;;0.63;0.40;;;-3.00;99.90;;;;;;4986095;28;20053;-79
2021/12/26 00:36:51;;;;;;;0.30;0.30;;;-3.10;99.90;;;;;;5003655;28;20419;-79
2021/12/26 00:39:16;;;;;;;0.47;0.47;;;-3.00;99.90;;;;;;5004317;28;20061;-79
2021/12/26 00:41:42;;;;;;;0.30;0.30;;;-3.10;99.90;;;;;;5002891;28;20481;-78
2021/12/26 00:44:08;;;;;;;0.40;0.40;;;-3.10;99.90;;;;;;5004089;28;20038;-78
2021/12/26 00:46:35;;;;;;;0.30;0.30;;;-3.00;99.90;;;;;;5004131;28;20053;-78
2021/12/26 00:49:00;;;;;;;0.60;0.50;;;-3.10;99.90;;;;;;5003851;28;20041;-79
2021/12/26 00:51:26;;;;;;;0.63;0.30;;;-3.00;99.90;;;;;;5003576;28;20128;-78
2021/12/26 00:53:51;;;;;;;0.80;0.47;;;-3.10;99.90;;;;;;5003773;28;20801;-78
2021/12/26 00:56:18;;;;;;;0.20;0.20;;;-3.10;99.90;;;;;;5003262;28;20494;-78
2021/12/26 00:58:44;;;;;;;4.63;1.13;;;-3.10;99.90;;;;;;5003630;28;20045;-78
2021/12/26 01:01:10;;;;;;;3.03;1.07;;;-3.10;99.90;;;;;;4985859;28;20058;-79
2021/12/26 01:03:35;;;;;;;0.17;0.17;;;-3.20;99.90;;;;;;5003713;28;20077;-78
2021/12/26 01:06:01;;;;;;;0.97;0.87;;;-3.20;99.90;;;;;;4985808;28;20053;-78
2021/12/26 01:08:31;;;;;;;6.70;0.60;;;-3.20;99.90;;;;;;5003389;28;20180;-78
2021/12/26 01:11:17;;;;;;;12.17;1.07;;;-3.20;99.90;;;;;;4984759;28;20052;-78
2021/12/26 01:13:49;;;;;;;0.50;0.27;;;-3.30;99.90;;;;;;5003439;28;20046;-78
2021/12/26 01:16:16;;;;;;;0.30;0.30;;;-3.30;99.90;;;;;;5003211;28;20042;-78
2021/12/26 01:18:50;;;;;;;0.43;0.17;;;-3.30;99.90;;;;;;5003211;28;20464;-79
2021/12/26 01:21:20;;;;;;;1.10;0.70;;;-3.40;99.90;;;;;;4985874;28;20037;-78
2021/12/26 01:23:49;;;;;;;1.50;1.30;;;-3.40;99.90;;;;;;4969652;28;20041;-78
2021/12/26 01:26:15;;;;;;;0.60;0.47;;;-3.30;99.90;;;;;;4984599;28;20116;-79
2021/12/26 01:28:41;;;;;;;0.33;0.33;;;-3.40;99.90;;;;;;4985572;28;20057;-78
2021/12/26 01:31:07;;;;;;;0.43;0.43;;;-3.40;99.90;;;;;;5002713;28;20408;-78
2021/12/26 01:33:33;;;;;;;0.47;0.43;;;-3.40;99.90;;;;;;5003200;28;20045;-78
2021/12/26 01:35:59;;;;;;;0.40;0.30;;;-3.40;99.90;;;;;;5002618;28;20042;-78
2021/12/26 01:38:25;;;;;;;1.47;0.80;;;-3.30;99.90;;;;;;5003143;28;20065;-79
2021/12/26 01:40:55;;;;;;;0.13;0.13;;;-3.30;99.90;;;;;;4984592;28;20184;-77
2021/12/26 01:43:25;;;;;;;0.43;0.40;;;-3.30;99.90;;;;;;4984998;28;20050;-78
2021/12/26 01:45:52;;;;;;;0.30;0.30;;;-3.30;99.90;;;;;;5002773;28;20045;-79
2021/12/26 01:48:18;;;;;;;0.67;0.60;;;-3.40;99.90;;;;;;5003239;28;20038;-78
2021/12/26 01:50:46;;;;;;;0.77;0.47;;;-3.40;99.90;;;;;;5003128;28;20401;-78
2021/12/26 01:53:12;;;;;;;0.70;0.70;;;-3.40;99.90;;;;;;5002196;28;20052;-78
2021/12/26 01:55:45;;;;;;;2.60;0.97;;;-3.40;99.90;;;;;;5002043;28;20113;-78
2021/12/26 01:58:12;;;;;;;;;;;-3.40;99.90;;;;;;5002796;28;20348;-78
2021/12/26 02:00:40;;;;;;;3.43;0.53;;;-3.40;99.90;;;;;;4985088;28;19921;-78
2021/12/26 02:03:06;;;;;;;1.90;1.37;;;-3.40;99.90;;;;;;5002194;28;20046;-78
2021/12/26 02:05:32;;;;;;;0.60;0.57;;;-3.40;99.90;;;;;;5002275;28;20576;-78
2021/12/26 02:07:58;;;;;;;2.00;0.83;;;-3.40;99.90;;;;;;5011715;23;20081;-78
2021/12/26 02:10:24;;;;;;;0.53;0.40;;;-3.40;99.90;;;;;;4982834;28;20053;-78
2021/12/26 02:12:50;;;;;;;0.20;0.17;;;-3.40;99.90;;;;;;5002911;28;20369;-78
2021/12/26 02:15:15;;;;;;;2.10;0.73;;;-3.40;99.90;;;;;;4985061;28;20168;-78
2021/12/26 02:17:41;;;;;;;0.20;0.20;;;-3.40;99.90;;;;;;4968667;28;20131;-78
2021/12/26 02:20:16;;;;;;;0.00;0.00;;;-3.40;99.90;;;;;;5002180;28;20057;-79
2021/12/26 02:22:46;;;;;;;0.17;0.17;;;-3.30;99.90;;;;;;4983941;28;20045;-79
2021/12/26 02:27:55;;;;;;;0.00;0.00;;;-3.30;99.90;;;;;;5001770;28;20058;-79
2021/12/26 02:30:22;;;;;;;0.00;0.00;;;-3.30;99.90;;;;;;5002101;28;20430;-78
2021/12/26 02:32:49;;;;;;;0.30;0.30;;;-3.40;99.90;;;;;;5002667;28;20104;-78
2021/12/26 02:35:16;;;;;;;0.53;0.40;;;-3.40;99.90;;;;;;4984273;28;20049;-79
2021/12/26 02:37:42;;;;;;;1.07;0.43;;;-3.50;99.90;;;;;;4984738;28;20072;-79
2021/12/26 02:40:08;;;;;;;0.87;0.67;;;-3.50;99.90;;;;;;4982998;28;20038;-78
2021/12/26 02:42:34;;;;;;;0.30;0.30;;;-3.50;99.90;;;;;;5000930;28;20050;-79
2021/12/26 02:45:00;;;;;;;0.57;0.57;;;-3.60;99.90;;;;;;4992207;28;20061;-79
2021/12/26 02:47:38;;;;;;;1.50;1.40;;;-3.60;99.90;;;;;;4987326;28;20694;-78
2021/12/26 02:50:07;;;;;;;2.53;0.77;;;-3.60;99.90;;;;;;4981644;28;20049;-79
2021/12/26 02:52:33;;;;;;;0.10;0.10;;;-3.50;99.90;;;;;;4964651;28;20129;-78
2021/12/26 02:54:59;;;;;;;0.40;0.40;;;-3.50;99.90;;;;;;4983215;28;20120;-79
2021/12/26 02:57:25;;;;;;;0.90;0.90;;;-3.50;99.90;;;;;;5010726;28;20046;-79
2021/12/26 02:59:50;;;;;;;0.63;0.63;;;-3.50;99.90;;;;;;4990689;28;20038;-78
2021/12/26 03:02:16;;;;;;;0.67;0.67;;;-3.50;99.90;;;;;;5002013;28;20081;-79
2021/12/26 03:04:42;;;;;;;2.00;1.13;;;-3.50;99.90;;;;;;5001406;28;20404;-79
2021/12/26 03:07:07;;;;;;;2.57;1.07;;;-3.50;99.90;;;;;;4993016;28;20049;-79
2021/12/26 03:09:43;;;;;;;0.57;0.50;;;-3.50;99.90;;;;;;5016508;28;20096;-79
2021/12/26 03:12:10;;;;;;;0.17;0.17;;;-3.40;99.90;;;;;;4985019;28;20132;-79
2021/12/26 03:14:36;;;;;;;0.53;0.53;;;-3.40;99.90;;;;;;4967091;28;20045;-79
2021/12/26 03:17:02;;;;;;;0.00;0.00;;;-3.40;99.90;;;;;;5001094;28;20469;-79
2021/12/26 03:19:31;;;;;;;11.77;0.93;;;-3.40;99.90;;;;;;4994277;28;20038;-79
2021/12/26 03:21:56;;;;;;;0.43;0.43;;;-3.40;99.90;;;;;;5001276;28;20038;-79
2021/12/26 03:24:22;;;;;;;0.43;0.20;;;-3.40;99.90;;;;;;4982445;28;20046;-78
2021/12/26 03:26:47;;;;;;;0.43;0.43;;;-3.40;99.90;;;;;;5001663;28;20168;-79
2021/12/26 03:29:13;;;;;;;0.23;0.23;;;-3.50;99.90;;;;;;4977656;28;20396;-78
2021/12/26 03:31:41;;;;;;;0.20;0.20;;;-3.40;99.90;;;;;;4992576;28;20045;-78
2021/12/26 03:34:07;;;;;;;0.10;0.10;;;-3.50;99.90;;;;;;5005414;28;20080;-79
2021/12/26 03:36:33;;;;;;;1.57;0.40;;;-3.50;99.90;;;;;;4985743;28;20046;-79
2021/12/26 03:38:58;;;;;;;0.57;0.57;;;-3.50;99.90;;;;;;4985459;28;20041;-78
2021/12/26 03:41:24;;;;;;;0.73;0.70;;;-3.50;99.90;;;;;;4984624;28;20045;-79
2021/12/26 03:43:50;;;;;;;0.47;0.47;;;-3.60;99.90;;;;;;5003291;28;20045;-79
2021/12/26 03:46:15;;;;;;;0.20;0.20;;;-3.60;99.90;;;;;;4994421;28;20104;-79
2021/12/26 03:48:41;;;;;;;0.13;0.13;;;-3.60;99.90;;;;;;5003944;28;20514;-79
2021/12/26 03:51:07;;;;;;;0.30;0.30;;;-3.60;99.90;;;;;;5004442;28;20046;-79
2021/12/26 03:53:32;;;;;;;0.47;0.47;;;-3.60;99.90;;;;;;5005211;28;20042;-79
2021/12/26 03:55:58;;;;;;;1.20;0.73;;;-3.60;99.90;;;;;;5003779;28;20069;-79
2021/12/26 03:58:24;;;;;;;0.20;0.20;;;-3.60;99.90;;;;;;5005099;28;20120;-79
2021/12/26 04:00:50;;;;;;;0.60;0.60;;;-3.60;99.90;;;;;;5005220;28;20046;-79
2021/12/26 04:03:16;;;;;;;0.43;0.43;;;-3.50;99.90;;;;;;4971381;28;20058;-79
2021/12/26 04:05:42;;;;;;;0.70;0.70;;;-3.50;99.90;;;;;;4987204;28;20213;-79
2021/12/26 04:08:08;;;;;;;0.17;0.17;;;-3.50;99.90;;;;;;4986499;28;20539;-79
2021/12/26 04:10:34;;;;;;;0.63;0.47;;;-3.50;99.90;;;;;;5002678;28;20077;-79
2021/12/26 04:12:59;;;;;;;0.30;0.30;;;-3.60;99.90;;;;;;5004723;28;20105;-79
2021/12/26 04:15:26;;;;;;;0.27;0.27;;;-3.60;99.90;;;;;;5004282;28;20125;-78
2021/12/26 04:17:54;;;;;;;0.10;0.10;;;-3.60;99.90;;;;;;5004664;28;20049;-79
2021/12/26 04:20:22;;;;;;;0.87;0.60;;;-3.60;99.90;;;;;;5004792;28;20069;-79
2021/12/26 04:22:48;;;;;;;0.23;0.23;;;-3.60;99.90;;;;;;5003810;28;20053;-79
2021/12/26 04:25:14;;;;;;;0.93;0.23;;;-3.60;99.90;;;;;;5003403;28;20033;-79
2021/12/26 04:27:40;;;;;;;1.10;0.30;;;-3.70;99.90;;;;;;4986697;28;20426;-79
2021/12/26 04:30:09;;;;;;;0.20;0.10;;;-3.60;99.90;;;;;;4957655;28;20381;-79
2021/12/26 04:32:35;;;;;;;1.03;0.73;;;-3.60;99.90;;;;;;4984649;28;20050;-80
2021/12/26 04:35:00;;;;;;;0.20;0.20;;;-3.60;99.90;;;;;;4984600;28;20053;-80
2021/12/26 04:37:26;;;;;;;3.60;0.30;;;-3.60;99.90;;;;;;4984829;28;20046;-79
2021/12/26 04:39:51;;;;;;;0.30;0.23;;;-3.60;99.90;;;;;;4966182;28;20046;-79
2021/12/26 04:42:17;;;;;;;0.10;0.10;;;-3.60;99.90;;;;;;4985262;28;20400;-79
2021/12/26 04:44:42;;;;;;;1.50;0.93;;;-3.60;99.90;;;;;;4966713;28;20496;-79
2021/12/26 04:47:08;;;;;;;0.40;0.40;;;-3.60;99.90;;;;;;4966194;28;20050;-79
2021/12/26 04:49:34;;;;;;;0.40;0.30;;;-3.60;99.90;;;;;;4966884;28;20448;-79
2021/12/26 04:51:59;;;;;;;0.53;0.27;;;-3.60;99.90;;;;;;4983989;28;20066;-79
2021/12/26 04:54:25;;;;;;;0.10;0.10;;;-3.50;99.90;;;;;;4983855;28;20727;-79
2021/12/26 04:56:51;;;;;;;2.97;0.63;;;-3.60;99.90;;;;;;4983871;28;20042;-79
2021/12/26 04:59:16;;;;;;;0.20;0.20;;;-3.60;99.90;;;;;;4984813;28;20429;-79
2021/12/26 05:01:42;;;;;;;0.50;0.50;;;-3.60;99.90;;;;;;4984149;28;20046;-80
2021/12/26 05:04:09;;;;;;;0.30;0.30;;;-3.60;99.90;;;;;;4966605;28;20425;-80
2021/12/26 05:06:35;;;;;;;0.00;0.00;;;-3.70;99.90;;;;;;4984225;28;20077;-80
2021/12/26 05:09:00;;;;;;;0.10;0.10;;;-3.70;99.90;;;;;;4965326;28;20054;-80
2021/12/26 05:11:26;;;;;;;2.40;0.50;;;-3.70;99.90;;;;;;4984281;28;20051;-80
2021/12/26 05:13:51;;;;;;;0.57;0.40;;;-3.80;99.90;;;;;;4983872;28;20046;-80
2021/12/26 05:16:17;;;;;;;0.30;0.20;;;-3.90;99.90;;;;;;4984329;28;20419;-80
2021/12/26 05:18:43;;;;;;;0.77;0.37;;;-3.90;99.90;;;;;;4983818;28;20070;-80
2021/12/26 05:21:08;;;;;;;0.13;0.13;;;-3.90;99.90;;;;;;4966270;28;20054;-80
2021/12/26 05:23:34;;;;;;;0.37;0.37;;;-3.90;99.90;;;;;;4966700;28;20069;-80
2021/12/26 05:25:59;;;;;;;0.50;0.50;;;-3.80;99.90;;;;;;4965029;28;20073;-80
2021/12/26 05:28:25;;;;;;;0.23;0.10;;;-3.80;99.90;;;;;;4966173;28;20129;-80
2021/12/26 05:30:50;;;;;;;0.67;0.43;;;-3.80;99.90;;;;;;5002231;28;20050;-78
2021/12/26 05:33:16;;;;;;;3.50;0.90;;;-3.80;99.90;;;;;;4986228;28;20038;-80
2021/12/26 05:35:41;;;;;;;0.20;0.20;;;-3.80;99.90;;;;;;4985676;28;20129;-80
2021/12/26 05:38:08;;;;;;;0.20;0.20;;;-3.70;99.90;;;;;;5002752;28;20034;-80
2021/12/26 05:40:33;;;;;;;0.63;0.63;;;-3.70;99.90;;;;;;5002045;28;20077;-81
2021/12/26 05:42:59;;;;;;;0.50;0.50;;;-3.70;99.90;;;;;;5002709;28;20092;-81
2021/12/26 05:45:24;;;;;;;3.70;0.87;;;-3.80;99.90;;;;;;5003133;28;20564;-80
2021/12/26 05:47:50;;;;;;;1.03;0.60;;;-3.80;99.90;;;;;;5003036;28;20049;-80
2021/12/26 05:50:18;;;;;;;0.93;0.80;;;-3.80;99.90;;;;;;5003583;28;20064;-81
2021/12/26 05:52:44;;;;;;;0.30;0.27;;;-3.80;99.90;;;;;;4978393;28;20077;-80
2021/12/26 05:55:11;;;;;;;0.63;0.63;;;-3.70;99.90;;;;;;5001250;28;20080;-80
2021/12/26 05:57:37;;;;;;;0.07;0.07;;;-3.70;99.90;;;;;;5001470;28;20038;-81
2021/12/26 06:00:08;;;;;;;0.00;0.00;;;-3.70;99.90;;;;;;5002377;28;20060;-81
2021/12/26 06:02:34;;;;;;;0.10;0.10;;;-3.60;99.90;;;;;;4984746;28;20081;-80
2021/12/26 06:04:59;;;;;;;0.17;0.17;;;-3.60;99.90;;;;;;5002159;28;20312;-80
2021/12/26 06:07:25;;;;;;;0.90;0.60;;;-3.60;99.90;;;;;;4984949;28;20692;-81
2021/12/26 06:09:50;;;;;;;0.20;0.20;;;-3.60;99.90;;;;;;4983744;28;20093;-79
2021/12/26 06:12:16;;;;;;;0.10;0.10;;;-3.60;99.90;;;;;;5002940;28;20053;-80
2021/12/26 06:14:42;;;;;;;0.50;0.50;;;-3.70;99.90;;;;;;4985415;28;20042;-81
2021/12/26 06:17:09;;;;;;;0.87;0.50;;;-3.70;99.90;;;;;;5002175;28;20083;-81
2021/12/26 06:19:35;;;;;;;0.33;0.33;;;-3.70;99.90;;;;;;5002292;28;20045;-80
2021/12/26 06:22:02;;;;;;;0.23;0.23;;;-3.70;99.90;;;;;;4984482;28;20050;-80
2021/12/26 06:24:29;;;;;;;0.40;0.40;;;-3.60;99.90;;;;;;5000305;28;20054;-81
2021/12/26 06:26:55;;;;;;;0.20;0.17;;;-3.70;99.90;;;;;;5002130;28;20068;-81
2021/12/26 06:29:21;;;;;;;0.20;0.20;;;-3.60;99.90;;;;;;4977893;28;20042;-81
2021/12/26 06:31:46;;;;;;;0.20;0.20;;;-3.60;99.90;;;;;;4982914;28;20527;-80
2021/12/26 06:34:12;;;;;;;0.33;0.10;;;-3.60;99.90;;;;;;4982086;28;20046;-81
2021/12/26 06:36:38;;;;;;;0.00;0.00;;;-3.60;99.90;;;;;;4965144;28;20049;-80
2021/12/26 06:39:04;;;;;;;0.00;0.00;;;-3.60;99.90;;;;;;4981175;28;20069;-81
2021/12/26 06:41:30;;;;;;;0.13;0.13;;;-3.60;99.90;;;;;;4982312;28;20049;-81
2021/12/26 06:44:05;;;;;;;0.40;0.40;;;-3.60;99.90;;;;;;4965059;28;20054;-81
2021/12/26 06:46:32;;;;;;;0.20;0.20;;;-3.60;99.90;;;;;;4964723;28;20101;-81
2021/12/26 06:48:58;;;;;;;1.33;0.30;;;-3.60;99.90;;;;;;4964940;28;20061;-81
2021/12/26 06:51:24;;;;;;;1.00;0.33;;;-3.60;99.90;;;;;;4982561;28;20477;-80
2021/12/26 06:53:49;;;;;;;0.93;0.83;;;-3.60;99.90;;;;;;4981462;28;20050;-80
2021/12/26 06:56:15;;;;;;;0.00;0.00;;;-3.70;99.90;;;;;;4964522;28;20046;-81
2021/12/26 06:58:40;;;;;;;0.20;0.20;;;-3.70;99.90;;;;;;4948459;28;20512;-81
2021/12/26 07:01:06;;;;;;;3.23;0.70;;;-3.70;99.90;;;;;;4964447;28;20057;-81
2021/12/26 07:03:31;;;;;;;0.50;0.50;;;-3.70;99.90;;;;;;4964693;28;20133;-81
2021/12/26 07:05:57;;;;;;;0.00;0.00;;;-3.70;99.90;;;;;;4981760;28;20097;-81
2021/12/26 07:08:23;;;;;;;0.40;0.40;;;-3.70;99.90;;;;;;4981659;28;20109;-81
2021/12/26 07:10:49;;;;;;;0.40;0.40;;;-3.70;99.90;;;;;;4981694;28;20054;-81
2021/12/26 07:13:15;;;;;;;0.40;0.40;;;-3.70;99.90;;;;;;4964243;28;20041;-81
2021/12/26 07:15:40;;;;;;;0.23;0.23;;;-3.80;99.90;;;;;;4964636;28;20146;-81
2021/12/26 07:18:06;;;;;;;2.00;1.13;;;-3.70;99.90;;;;;;4981371;28;20073;-81
2021/12/26 07:20:32;;;;;;;2.23;0.23;;;-3.70;99.90;;;;;;4964599;28;20066;-81
2021/12/26 07:22:58;;;;;;;0.53;0.47;;;-3.70;99.90;;;;;;4964364;28;20460;-81
2021/12/26 07:25:24;;;;;;;0.50;0.50;;;-3.70;99.90;;;;;;4963696;28;20046;-81
2021/12/26 07:27:49;;;;;;;0.90;0.23;;;-3.70;99.90;;;;;;4982134;28;20046;-81
2021/12/26 07:30:15;;;;;;;0.37;0.23;;;-3.70;99.90;;;;;;4977092;28;20556;-81
2021/12/26 07:32:41;;;;;;;0.10;0.10;;;-3.70;99.90;;;;;;5001483;28;20062;-81
2021/12/26 07:35:09;;;;;;;0.10;0.10;;;-3.60;99.90;;;;;;5000631;28;20049;-81
2021/12/26 07:37:34;;;;;;;7.20;0.83;;;-3.60;99.90;;;;;;5001354;28;20038;-81
2021/12/26 07:40:00;;;;;;;14.23;0.70;;;-3.60;99.90;;;;;;4982935;28;20056;-81
2021/12/26 07:42:25;;;;;;;0.57;0.57;;;-3.60;99.90;;;;;;5001301;28;20053;-81
2021/12/26 07:44:51;;;;;;;0.43;0.43;;;-3.60;99.90;;;;;;5000962;28;20034;-82
2021/12/26 07:47:17;;;;;;;0.57;0.57;;;-3.60;99.90;;;;;;5001310;28;20420;-81
2021/12/26 07:49:42;;;;;;;1.73;0.73;;;-3.60;99.90;;;;;;4981084;28;20535;-83
2021/12/26 07:52:16;;;;;;;2.73;0.67;;;-3.60;99.90;;;;;;4996749;28;20038;-81
2021/12/26 07:54:42;;;;;;;0.83;0.83;;;-3.60;99.90;;;;;;4970414;28;20154;-81
2021/12/26 07:57:08;;;;;;;4.47;0.83;;;-3.60;99.90;;;;;;4990073;28;20060;-82
2021/12/26 07:59:35;;;;;;;0.33;0.33;;;-3.60;99.90;;;;;;4981688;28;20513;-82
2021/12/26 08:02:01;;;;;;;0.40;0.40;;;-3.60;99.90;;;;;;4992294;28;20057;-82
2021/12/26 08:04:27;;;;;;;0.90;0.90;;;-3.60;99.90;;;;;;4966424;28;20054;-83
2021/12/26 08:06:53;;;;;;;3.10;0.80;;;-3.60;99.90;;;;;;4991157;28;20046;-82
2021/12/26 08:09:19;;;;;;;1.80;0.93;;;-3.60;99.90;;;;;;4980530;28;20060;-82
2021/12/26 08:11:45;;;;;;;0.80;0.80;;;-3.60;99.90;;;;;;4992234;28;20049;-82
2021/12/26 08:14:11;;;;;;;0.67;0.60;;;-3.70;99.90;;;;;;4991175;28;20205;-83
2021/12/26 08:16:36;;;;;;;3.60;0.83;;;-3.70;99.90;;;;;;4983444;28;20077;-82
2021/12/26 08:19:03;;;;;;;1.03;0.67;;;-3.70;99.90;;;;;;4984742;28;20710;-82
2021/12/26 08:21:29;;;;;;;0.30;0.20;;;-3.70;99.90;;;;;;4989536;28;20038;-81
2021/12/26 08:23:54;;;;;;;0.50;0.50;;;-3.60;99.90;;;;;;4989569;28;20118;-81
2021/12/26 08:26:20;;;;;;;1.07;0.50;;;-3.60;99.90;;;;;;4997016;28;20053;-82
2021/12/26 08:28:46;;;;;;;0.80;0.73;;;-3.60;99.90;;;;;;4994857;28;20423;-83
2021/12/26 08:31:11;;;;;;;0.97;0.37;;;-3.60;99.90;;;;;;4975172;28;20041;-82
2021/12/26 08:33:37;;;;;;;0.53;0.53;;;-3.60;99.90;;;;;;4986845;28;20050;-82
2021/12/26 08:36:04;;;;;;;3.03;0.47;;;-3.60;99.90;;;;;;5000731;28;20500;-81
2021/12/26 08:38:30;;;;;;;0.57;0.57;;;-3.60;99.90;;;;;;4997309;28;20428;-81
2021/12/26 08:40:57;;;;;;;0.70;0.70;;;-3.60;99.90;;;;;;4966022;28;20377;-82
2021/12/26 08:43:22;;;;;;;1.13;1.03;;;-3.60;99.90;;;;;;4998326;28;20107;-81
2021/12/26 08:45:49;;;;;;;2.83;1.00;;;-3.60;99.90;;;;;;4985089;28;20069;-81
2021/12/26 08:48:15;;;;;;;0.90;0.90;;;-3.60;99.90;;;;;;4986376;28;20129;-82
2021/12/26 08:50:42;;;;;;;0.20;0.20;;;-3.60;99.90;;;;;;5002719;28;20567;-81
2021/12/26 08:53:08;;;;;;;1.53;0.67;;;-3.60;99.90;;;;;;4986322;28;20050;-82
2021/12/26 08:55:34;;;;;;;0.83;0.83;;;-3.50;99.90;;;;;;5003516;28;20072;-82
2021/12/26 08:58:00;;;;;;;0.50;0.40;;;-3.50;99.90;;;;;;4982815;28;20042;-82
2021/12/26 09:00:26;;;;;;;0.47;0.43;;;-3.40;99.90;;;;;;4994873;28;20650;-81
2021/12/26 09:02:53;;;;;;;2.97;1.60;;;-3.50;99.90;;;;;;4967811;28;20074;-82
2021/12/26 09:05:19;;;;;;;1.27;1.10;;;-3.40;99.90;;;;;;4999516;28;20057;-82
2021/12/26 09:07:45;;;;;;;0.33;0.23;;;-3.40;99.90;;;;;;4970326;28;20050;-82
2021/12/26 09:10:13;;;;;;;0.77;0.37;;;-3.40;99.90;;;;;;4996512;28;20058;-82
2021/12/26 09:12:40;;;;;;;1.17;1.17;;;-3.40;99.90;;;;;;4991613;28;20089;-83
2021/12/26 09:15:09;;;;;;;0.83;0.43;;;-3.40;99.90;;;;;;4964912;28;20045;-83
2021/12/26 09:17:35;;;;;;;0.50;0.50;;;-3.30;99.90;;;;;;4992105;28;20069;-83
2021/12/26 09:20:00;;;;;;;1.00;0.63;;;-3.30;99.90;;;;;;5002919;28;20484;-82
2021/12/26 09:22:26;;;;;;;1.37;0.93;;;-3.30;99.90;;;;;;4985082;28;20045;-82
2021/12/26 09:24:52;;;;;;;0.20;0.20;;;-3.20;99.90;;;;;;4983885;28;20045;-82
2021/12/26 09:27:18;;;;;;;2.73;1.27;;;-3.20;99.90;;;;;;4975687;28;20046;-82
2021/12/26 09:29:44;;;;;;;0.87;0.40;;;-3.20;99.90;;;;;;4969684;28;20042;-82
2021/12/26 09:32:10;;;;;;;0.53;0.53;;;-3.10;99.90;;;;;;4976512;28;20511;-82
2021/12/26 09:34:36;;;;;;;0.43;0.43;;;-3.10;99.90;;;;;;4983820;28;20050;-82
2021/12/26 09:37:04;;;;;;;1.43;1.00;;;-3.10;99.90;;;;;;4966012;28;20042;-81
2021/12/26 09:39:30;;;;;;;0.50;0.50;;;-3.10;99.90;;;;;;4988899;28;20046;-82
2021/12/26 09:41:56;;;;;;;0.47;0.47;;;-3.00;99.90;;;;;;4967624;28;20050;-82
2021/12/26 09:44:22;;;;;;;0.93;0.93;;;-3.00;99.90;;;;;;5001501;28;20042;-82
2021/12/26 09:46:48;;;;;;;0.90;0.90;;;-3.00;99.90;;;;;;5003675;28;20506;-81
2021/12/26 09:49:14;;;;;;;1.33;1.23;;;-2.90;99.90;;;;;;4982018;28;20041;-82
2021/12/26 09:51:39;;;;;;;1.97;0.67;;;-2.90;99.90;;;;;;4996604;28;20046;-82
2021/12/26 09:54:06;;;;;;;1.63;1.43;;;-2.90;99.90;;;;;;4991370;28;20396;-82
2021/12/26 09:56:32;;;;;;;1.30;0.87;;;-2.80;99.90;;;;;;4983622;28;20038;-83
2021/12/26 09:59:01;;;;;;;0.57;0.57;;;-2.80;99.90;;;;;;4980500;28;20173;-80
2021/12/26 10:01:42;;;;;;;0.20;0.20;;;-2.80;99.90;;;;;;5003002;28;20060;-80
2021/12/26 10:04:23;;;;;;;0.40;0.40;;;-2.80;99.90;;;;;;4989096;28;20058;-80
2021/12/26 10:06:51;;;;;;;0.90;0.90;;;-2.70;99.90;;;;;;5002465;28;20563;-79
2021/12/26 10:09:18;;;;;;;1.27;1.03;;;-2.70;99.90;;;;;;5001955;28;20089;-80
2021/12/26 10:11:47;;;;;;;0.93;0.67;;;-2.70;99.90;;;;;;5001064;28;20093;-80
2021/12/26 10:14:16;;;;;;;0.30;0.30;;;-2.70;99.90;;;;;;5000616;28;20046;-80
2021/12/26 10:16:55;;;;;;;3.03;0.97;;;-2.60;99.90;;;;;;4976025;28;20037;-80
2021/12/26 10:19:20;;;;;;;1.10;1.10;;;-2.60;99.90;;;;;;4966935;28;20503;-80
2021/12/26 10:21:56;;;;;;;0.53;0.53;;;-2.60;99.90;;;;;;4969333;28;20076;-80
2021/12/26 10:24:26;;;;;;;2.40;0.40;;;-2.60;99.90;;;;;;4977455;28;20454;-80
2021/12/26 10:27:02;;;;;;;0.57;0.40;;;-2.50;99.90;;;;;;4982384;28;20076;-80
2021/12/26 10:29:39;;;;;;;1.60;1.17;;;-2.50;99.90;;;;;;4990057;28;20058;-80
2021/12/26 10:32:14;;;;;;;0.30;0.30;;;-2.50;99.90;;;;;;4971766;28;20136;-86
2021/12/26 10:34:45;;;;;;;0.97;0.97;;;-2.50;99.90;;;;;;4973890;28;20488;-87
2021/12/26 10:37:13;;;;;;;2.47;0.82;;;-2.40;99.90;;;;;;4979050;28;20054;-83
2021/12/26 10:39:43;;;;;;;0.50;0.50;;;-2.40;99.90;;;;;;4997875;28;20046;-86
2021/12/26 10:42:13;;;;;;;1.70;0.83;;;-2.40;99.90;;;;;;4996382;28;20153;-85
2021/12/26 10:44:42;;;;;;;3.00;0.57;;;-2.40;99.90;;;;;;4979468;28;20124;-82
2021/12/26 10:47:11;;;;;;;2.57;0.93;;;-2.40;99.90;;;;;;4992005;28;20118;-84
2021/12/26 10:49:40;;;;;;;0.70;0.70;;;-2.40;99.90;;;;;;4962731;28;20038;-84
2021/12/26 10:52:12;;;;;;;1.07;1.07;;;-2.40;99.90;;;;;;4995716;28;20053;-83
2021/12/26 10:54:41;;;;;;;0.30;0.30;;;-2.30;99.90;;;;;;4973006;28;20112;-83
2021/12/26 10:57:10;;;;;;;0.47;0.47;;;-2.30;99.90;;;;;;4971137;28;20146;-84
2021/12/26 10:59:38;;;;;;;2.03;1.03;;;-2.30;99.90;;;;;;4964798;28;20046;-84
2021/12/26 11:02:04;;;;;;;0.67;0.67;;;-2.30;99.90;;;;;;4984229;28;20676;-82
2021/12/26 11:04:30;;;;;;;0.93;0.63;;;-2.20;99.90;;;;;;4983919;28;20082;-83
2021/12/26 11:07:05;;;;;;;0.27;0.27;;;-2.20;99.90;;;;;;5001357;28;20046;-81
2021/12/26 11:09:30;;;;;;;0.50;0.50;;;-2.20;99.90;;;;;;4993684;28;20485;-89
2021/12/26 11:12:04;;;;;;;0.23;0.23;;;-2.20;99.90;;;;;;4994280;28;20050;-87
2021/12/26 11:14:30;;;;;;;1.53;0.87;;;-2.20;99.90;;;;;;4997119;28;20485;-89
2021/12/26 11:16:55;;;;;;;0.67;0.67;;;-2.10;99.90;;;;;;4958719;28;20081;-89
2021/12/26 11:19:43;;;;;;;5.63;1.00;;;-2.10;99.90;;;;;;4950377;28;20473;-83
2021/12/26 11:22:10;;;;;;;7.20;1.30;;;-2.10;99.90;;;;;;4984127;28;20077;-83
2021/12/26 11:24:37;;;;;;;1.37;1.27;;;-2.10;99.90;;;;;;4947110;28;20042;-82
2021/12/26 11:27:04;;;;;;;1.30;0.50;;;-2.00;99.90;;;;;;4992657;28;20053;-82
2021/12/26 11:29:30;;;;;;;4.37;0.70;;;-2.00;99.90;;;;;;4993202;28;20077;-84
2021/12/26 11:31:57;;;;;;;1.37;0.83;;;-2.00;99.90;;;;;;4999992;28;20046;-83
2021/12/26 11:34:24;;;;;;;1.13;0.77;;;-2.00;99.90;;;;;;4989375;28;20510;-85
2021/12/26 11:36:50;;;;;;;1.23;1.13;;;-2.00;99.90;;;;;;5000187;28;20046;-79
2021/12/26 11:39:17;;;;;;;0.73;0.73;;;-1.90;99.90;;;;;;5000347;28;20052;-80
2021/12/26 11:42:04;;;;;;;6.23;1.93;;;-1.90;99.90;;;;;;4974222;28;20042;-79
2021/12/26 11:45:05;;;;;;;1.20;1.10;;;-1.90;99.90;;;;;;4964282;28;20077;-79
2021/12/26 11:48:00;;;;;;;0.90;0.90;;;-1.80;99.90;;;;;;4981812;28;20472;-79
2021/12/26 11:51:04;;;;;;;0.77;0.70;;;-1.80;99.90;;;;;;4969988;28;20073;-79
2021/12/26 11:54:01;;;;;;;1.40;1.33;;;-1.80;99.90;;;;;;4978317;28;20096;-80
2021/12/26 11:56:44;;;;;;;0.83;0.83;;;-1.80;99.90;;;;;;4980045;28;20046;-80
2021/12/26 11:59:28;;;;;;;1.70;0.53;;;-1.70;99.90;;;;;;4996244;28;20037;-80
2021/12/26 12:01:54;;;;;;;0.53;0.50;;;-1.70;99.90;;;;;;5001283;28;20057;-80
2021/12/26 12:04:23;;;;;;;1.03;0.97;;;-1.70;99.90;;;;;;4994252;28;20182;-80
2021/12/26 12:06:51;;;;;;;1.27;1.20;;;-1.70;99.90;;;;;;4993964;28;20085;-79
2021/12/26 12:09:38;;;;;;;1.30;0.67;;;-1.60;99.90;;;;;;4988351;28;20054;-91
2021/12/26 12:12:06;;;;;;;3.03;1.97;;;-1.60;99.90;;;;;;4993534;28;20571;-84
2021/12/26 12:14:56;;;;;;;1.80;0.73;;;-1.60;99.90;;;;;;4990254;28;20040;-81
2021/12/26 12:17:27;;;;;;;1.67;1.57;;;-1.60;99.90;;;;;;4993518;28;20485;-82
2021/12/26 12:20:07;;;;;;;1.00;0.90;;;-1.50;99.90;;;;;;4993896;28;20038;-82
2021/12/26 12:23:02;;;;;;;2.37;0.67;;;-1.50;99.90;;;;;;4990422;28;20073;-88
2021/12/26 12:25:34;;;;;;;0.80;0.80;;;-1.40;99.90;;;;;;4978384;28;20137;-85
2021/12/26 12:28:10;;;;;;;4.13;1.20;;;-1.40;99.90;;;;;;4993816;28;20060;-86
2021/12/26 12:30:37;;;;;;;2.30;2.13;;;-1.40;99.90;;;;;;4992524;28;20100;-87
2021/12/26 12:33:25;;;;;;;0.40;0.40;;;-1.40;99.90;;;;;;4974244;28;20046;-87
2021/12/26 12:36:10;;;;;;;2.37;1.07;;;-1.30;99.90;;;;;;4967911;28;20041;-85
2021/12/26 12:38:46;;;;;;;0.80;0.80;;;-1.30;99.90;;;;;;4975426;28;20047;-84
2021/12/26 12:41:30;;;;;;;1.60;1.50;;;-1.30;99.90;;;;;;4993791;28;20112;-84
2021/12/26 12:44:01;;;;;;;2.07;1.87;;;-1.30;99.90;;;;;;4981927;28;20048;-84
2021/12/26 12:46:27;;;;;;;3.40;3.13;;;-1.20;99.90;;;;;;4996196;28;20042;-80
2021/12/26 12:49:03;;;;;;;3.13;2.83;;;-1.20;99.90;;;;;;4965926;28;20081;-84
2021/12/26 12:51:36;;;;;;;7.97;4.20;;;-1.20;99.90;;;;;;4992218;28;20103;-87
2021/12/26 12:54:04;;;;;;;13.43;10.43;;;-1.20;99.90;;;;;;4999781;28;20043;-87